Time,TemperatureF,DewpointF,PressureIn,WindDirection,WindDirectionDegrees,WindSpeedMPH,WindSpeedGustMPH,Humidity,HourlyPrecipIn,Conditions,Clouds,dailyrainin,SoftwareType,DateUTC
2013-09-24 00:12:00,54.0,-99.9,-100.00,SE,138,2.0,5.0,-999,-99.99,,,-99.99,,2013-09-24 07:12:00,
2013-09-24 01:11:00,52.0,-99.9,-100.00,SSE,167,5.0,6.0,-999,-99.99,,,-99.99,,2013-09-24 08:11:00,
2013-09-24 02:12:00,52.0,-99.9,-100.00,South,172,3.0,3.0,-999,-99.99,,,-99.99,,2013-09-24 09:12:00,
2013-09-24 03:13:00,52.0,-99.9,-100.00,SSE,162,3.0,5.0,-999,-99.99,,,-99.99,,2013-09-24 10:13:00,
2013-09-24 04:11:00,53.0,-99.9,-100.00,SE,134,1.0,2.0,-999,-99.99,,,-99.99,,2013-09-24 11:11:00,
2013-09-24 06:11:00,54.0,-99.9,-100.00,NNE,16,1.0,3.0,-999,-99.99,,,-99.99,,2013-09-24 13:11:00,
2013-09-24 07:12:00,50.0,-99.9,-100.00,SSE,158,2.0,3.0,-999,-99.99,,,-99.99,,2013-09-24 14:12:00,
2013-09-24 08:11:00,52.0,-99.9,-100.00,NW,313,3.0,6.0,-999,-99.99,,,-99.99,,2013-09-24 15:11:00,
2013-09-24 09:13:00,56.0,-99.9,-100.00,WNW,286,3.0,6.0,-999,-99.99,,,-99.99,,2013-09-24 16:13:00,
2013-09-24 10:13:00,57.0,-99.9,-100.00,NNW,342,3.0,6.0,-999,-99.99,,,-99.99,,2013-09-24 17:13:00,
2013-09-24 11:13:00,61.0,-99.9,-100.00,SE,125,3.0,7.0,-999,-99.99,,,-99.99,,2013-09-24 18:13:00,
2013-09-24 12:12:00,64.0,-99.9,-100.00,ENE,76,5.0,9.0,-999,-99.99,,,-99.99,,2013-09-24 19:12:00,
2013-09-24 13:12:00,67.0,-99.9,-100.00,West,267,6.0,14.0,-999,-99.99,,,-99.99,,2013-09-24 20:12:00,
2013-09-24 14:12:00,66.0,-99.9,-100.00,WSW,256,8.0,17.0,-999,-99.99,,,-99.99,,2013-09-24 21:12:00,
2013-09-24 15:13:00,66.0,-99.9,-100.00,WSW,249,6.0,12.0,-999,-99.99,,,-99.99,,2013-09-24 22:13:00,
2013-09-24 16:13:00,66.0,-99.9,-100.00,SW,231,8.0,13.0,-999,-99.99,,,-99.99,,2013-09-24 23:13:00,
2013-09-24 18:12:00,66.0,-99.9,-100.00,SSE,167,14.0,20.0,-999,-99.99,,,-99.99,,2013-09-25 01:12:00,
2013-09-24 19:12:00,64.0,-99.9,-100.00,South,175,13.0,20.0,-999,-99.99,,,-99.99,,2013-09-25 02:12:00,
2013-09-24 20:12:00,61.0,-99.9,-100.00,South,179,10.0,14.0,-999,-99.99,,,-99.99,,2013-09-25 03:12:00,
2013-09-24 21:14:00,58.0,-99.9,-100.00,ESE,122,8.0,13.0,-999,-99.99,,,-99.99,,2013-09-25 04:14:00,
2013-09-24 22:13:00,52.0,-99.9,-100.00,SSW,212,2.0,5.0,-999,-99.99,,,-99.99,,2013-09-25 05:13:00,
2013-09-24 23:13:00,53.0,-99.9,-100.00,ESE,110,2.0,3.0,-999,-99.99,,,-99.99,,2013-09-25 06:13:00,